createdAt,value
2023-02-11T00:01:30.420Z,1.58
2023-02-11T00:03:28.861Z,1.54
2023-02-11T00:05:24.407Z,1.58
2023-02-11T00:07:19.757Z,1.55
2023-02-11T00:09:16.629Z,1.61
2023-02-11T00:11:16.519Z,1.63
2023-02-11T00:13:12.160Z,1.62
2023-02-11T00:15:08.222Z,1.62
2023-02-11T00:17:03.900Z,1.65
2023-02-11T00:19:03.021Z,1.64
2023-02-11T00:20:59.537Z,1.65
2023-02-11T00:22:59.077Z,1.64
2023-02-11T00:24:57.130Z,1.66
2023-02-11T00:26:53.020Z,1.66
2023-02-11T00:28:50.167Z,1.67
2023-02-11T00:30:45.498Z,1.67
2023-02-11T00:32:42.723Z,1.68
2023-02-11T00:34:41.066Z,1.66
2023-02-11T00:36:36.708Z,1.67
2023-02-11T00:38:32.141Z,1.67
2023-02-11T00:40:27.707Z,1.64
2023-02-11T00:42:23.076Z,1.68
2023-02-11T00:44:19.631Z,1.69
2023-02-11T00:46:15.850Z,1.66
2023-02-11T00:48:12.056Z,1.65
2023-02-11T00:50:10.234Z,1.62
2023-02-11T00:52:05.383Z,1.64
2023-02-11T00:54:00.788Z,1.66
2023-02-11T00:55:55.817Z,1.65
2023-02-11T00:57:51.188Z,1.70
2023-02-11T00:59:46.162Z,1.73
2023-02-11T01:01:41.497Z,1.76
2023-02-11T01:03:37.157Z,1.73
2023-02-11T01:05:35.515Z,1.72
2023-02-11T01:07:31.485Z,1.69
2023-02-11T01:09:26.738Z,1.63
2023-02-11T01:11:23.791Z,1.63
2023-02-11T01:13:19.376Z,1.61
2023-02-11T01:15:16.495Z,1.58
2023-02-11T01:17:11.511Z,1.55
2023-02-11T01:19:06.786Z,1.54
2023-02-11T01:21:04.354Z,1.55
2023-02-11T01:22:59.349Z,1.55
2023-02-11T01:24:54.614Z,1.53
2023-02-11T01:26:49.545Z,1.55
2023-02-11T01:28:44.941Z,1.56
2023-02-11T01:30:39.989Z,1.57
2023-02-11T01:32:35.073Z,1.57
2023-02-11T01:34:30.359Z,1.56
2023-02-11T01:36:27.892Z,1.56
2023-02-11T01:38:25.125Z,1.55
2023-02-11T01:40:20.870Z,1.63
2023-02-11T01:42:18.861Z,1.66
2023-02-11T01:44:30.812Z,1.61
2023-02-11T01:46:37.060Z,1.63
2023-02-11T01:48:36.109Z,1.68
2023-02-11T01:50:31.445Z,1.63
2023-02-11T01:52:34.297Z,1.61
2023-02-11T01:54:45.198Z,1.64
2023-02-11T01:56:57.505Z,1.65
2023-02-11T01:58:54.585Z,1.70
2023-02-11T02:00:50.345Z,1.69
2023-02-11T02:02:51.869Z,1.70
2023-02-11T02:04:52.355Z,1.73
2023-02-11T02:06:53.736Z,1.78
2023-02-11T02:08:57.932Z,1.82
2023-02-11T02:10:56.616Z,1.82
2023-02-11T02:12:51.938Z,1.84
2023-02-11T02:14:46.860Z,1.83
2023-02-11T02:16:42.342Z,1.85
2023-02-11T02:18:46.144Z,1.90
2023-02-11T02:21:10.968Z,1.94
2023-02-11T02:23:41.273Z,1.98
2023-02-11T02:26:33.064Z,2.01
2023-02-11T02:28:54.626Z,2.03
2023-02-11T02:31:07.560Z,2.05
2023-02-11T02:33:27.133Z,2.06
2023-02-11T02:35:37.701Z,2.10
2023-02-11T02:37:39.385Z,2.11
2023-02-11T02:39:38.489Z,2.10
2023-02-11T02:41:37.263Z,2.12
2023-02-11T02:43:34.037Z,2.13
2023-02-11T02:45:29.501Z,2.14
2023-02-11T02:47:25.178Z,2.18
2023-02-11T02:49:22.669Z,2.17
2023-02-11T02:51:35.672Z,2.19
2023-02-11T02:53:37.962Z,2.20
2023-02-11T02:55:47.240Z,2.22
2023-02-11T02:57:59.288Z,2.25
2023-02-11T03:00:09.970Z,2.23
2023-02-11T03:02:16.517Z,2.22
2023-02-11T03:04:20.178Z,2.23
2023-02-11T03:06:23.174Z,2.28
2023-02-11T03:08:26.977Z,2.25
2023-02-11T03:10:26.645Z,2.24
2023-02-11T03:12:24.243Z,2.22
2023-02-11T03:14:22.020Z,2.27
2023-02-11T03:16:20.571Z,2.29
2023-02-11T03:18:18.627Z,2.26
2023-02-11T03:20:17.300Z,2.23
2023-02-11T03:22:22.850Z,2.28
2023-02-11T03:24:23.365Z,2.24
2023-02-11T03:26:26.060Z,2.21
2023-02-11T03:28:30.603Z,2.21
2023-02-11T03:30:31.287Z,2.19
2023-02-11T03:32:31.495Z,2.18
2023-02-11T03:34:32.388Z,2.19
2023-02-11T03:36:34.903Z,2.18
2023-02-11T03:38:36.928Z,2.20
2023-02-11T03:40:38.049Z,2.24
2023-02-11T03:42:38.414Z,2.27
2023-02-11T03:44:39.336Z,2.27
2023-02-11T03:46:40.112Z,2.23
2023-02-11T03:48:41.578Z,2.28
2023-02-11T03:50:38.890Z,2.31
2023-02-11T03:52:35.475Z,2.32
2023-02-11T03:54:34.329Z,2.29
2023-02-11T03:56:35.408Z,2.30
2023-02-11T03:58:30.436Z,2.33
2023-02-11T04:00:33.135Z,2.30
2023-02-11T04:02:31.705Z,2.33
2023-02-11T04:04:27.204Z,2.33
2023-02-11T04:06:22.345Z,2.31
2023-02-11T04:08:17.660Z,2.34
2023-02-11T04:10:15.593Z,2.34
2023-02-11T04:12:10.858Z,2.33
2023-02-11T04:14:06.209Z,2.35
2023-02-11T04:16:01.293Z,2.35
2023-02-11T04:17:53.948Z,2.40
2023-02-11T04:19:48.853Z,2.41
2023-02-11T04:21:43.764Z,2.48
2023-02-11T04:23:39.114Z,2.50
2023-02-11T04:25:36.616Z,2.48
2023-02-11T04:27:31.941Z,2.49
2023-02-11T04:29:28.208Z,2.52
2023-02-11T04:31:23.578Z,2.54
2023-02-11T04:33:18.601Z,2.56
2023-02-11T04:35:13.902Z,2.59
2023-02-11T04:37:09.254Z,2.62
2023-02-11T04:39:04.339Z,2.65
2023-02-11T04:41:03.274Z,2.65
2023-02-11T04:42:58.182Z,2.71
2023-02-11T04:44:53.542Z,2.73
2023-02-11T04:46:48.496Z,2.75
2023-02-11T04:48:44.099Z,2.70
2023-02-11T04:50:39.341Z,2.72
2023-02-11T04:52:34.901Z,2.72
2023-02-11T04:54:29.949Z,2.74
2023-02-11T04:56:27.819Z,2.76
2023-02-11T04:58:23.088Z,2.76
2023-02-11T05:00:19.469Z,2.78
2023-02-11T05:02:14.395Z,2.79
2023-02-11T05:04:09.704Z,2.81
2023-02-11T05:06:05.520Z,2.81
2023-02-11T05:08:00.781Z,2.87
2023-02-11T05:09:55.706Z,2.89
2023-02-11T05:11:53.689Z,2.88
2023-02-11T05:13:49.664Z,2.92
2023-02-11T05:15:44.929Z,2.92
2023-02-11T05:17:40.034Z,2.94
2023-02-11T05:19:35.551Z,2.92
2023-02-11T05:21:30.487Z,2.92
2023-02-11T05:23:25.390Z,2.92
2023-02-11T05:25:20.894Z,2.90
2023-02-11T05:27:18.486Z,2.86
2023-02-11T05:29:13.868Z,2.89
2023-02-11T05:31:09.351Z,2.86
2023-02-11T05:33:04.332Z,2.89
2023-02-11T05:34:59.557Z,2.91
2023-02-11T05:36:54.608Z,2.92
2023-02-11T05:38:50.947Z,2.90
2023-02-11T05:40:46.287Z,2.89
2023-02-11T05:42:44.275Z,2.95
2023-02-11T05:44:39.536Z,2.95
2023-02-11T05:46:34.880Z,2.93
2023-02-11T05:48:29.997Z,2.94
2023-02-11T05:50:25.923Z,2.95
2023-02-11T05:52:20.906Z,2.97
2023-02-11T05:54:16.340Z,3.01
2023-02-11T05:56:11.638Z,3.00
2023-02-11T05:58:10.638Z,3.01
2023-02-11T06:00:06.264Z,3.02
2023-02-11T06:02:02.065Z,2.95
2023-02-11T06:03:57.104Z,2.94
2023-02-11T06:05:52.616Z,3.00
2023-02-11T06:07:47.888Z,2.99
2023-02-11T06:09:43.404Z,3.00
2023-02-11T06:11:38.306Z,3.00
2023-02-11T06:13:36.218Z,3.01
2023-02-11T06:15:31.229Z,3.01
2023-02-11T06:17:26.637Z,3.05
2023-02-11T06:19:21.649Z,3.05
2023-02-11T06:21:16.988Z,3.05
2023-02-11T06:23:11.966Z,3.03
2023-02-11T06:25:07.955Z,3.01
2023-02-11T06:27:03.035Z,3.02
2023-02-11T06:29:02.523Z,3.05
2023-02-11T06:30:57.779Z,3.09
2023-02-11T06:32:52.850Z,3.10
2023-02-11T06:34:48.283Z,3.11
2023-02-11T06:36:44.036Z,3.08
2023-02-11T06:38:39.352Z,3.11
2023-02-11T06:40:34.244Z,3.11
2023-02-11T06:42:29.596Z,3.15
2023-02-11T06:44:27.373Z,3.16
2023-02-11T06:46:22.338Z,3.19
2023-02-11T06:48:17.569Z,3.15
2023-02-11T06:50:16.694Z,3.12
2023-02-11T06:52:11.953Z,3.13
2023-02-11T06:54:08.663Z,3.11
2023-02-11T06:56:06.115Z,3.12
2023-02-11T06:58:01.389Z,3.13
2023-02-11T06:59:59.567Z,3.15
2023-02-11T07:01:55.159Z,3.21
2023-02-11T07:03:50.809Z,3.22
2023-02-11T07:05:46.131Z,3.19
2023-02-11T07:07:41.399Z,3.21
2023-02-11T07:09:37.333Z,3.23
2023-02-11T07:11:33.047Z,3.26
2023-02-11T07:13:28.700Z,3.27
2023-02-11T07:15:26.477Z,3.28
2023-02-11T07:17:22.065Z,3.27
2023-02-11T07:19:17.267Z,3.33
2023-02-11T07:21:15.121Z,3.33
2023-02-11T07:23:10.530Z,3.35
2023-02-11T07:25:08.305Z,3.37
2023-02-11T07:27:03.647Z,3.38
2023-02-11T07:28:59.280Z,3.42
2023-02-11T07:30:57.421Z,3.41
2023-02-11T07:32:52.706Z,3.48
2023-02-11T07:34:48.675Z,3.49
2023-02-11T07:36:43.737Z,3.50
2023-02-11T07:38:39.737Z,3.51
2023-02-11T07:40:34.708Z,3.54
2023-02-11T07:42:29.627Z,3.58
2023-02-11T07:44:25.342Z,3.59
2023-02-11T07:46:25.296Z,3.59
2023-02-11T07:48:20.599Z,3.62
2023-02-11T07:50:15.492Z,3.65
2023-02-11T07:52:10.753Z,3.69
2023-02-11T07:54:05.717Z,3.71
2023-02-11T07:56:01.050Z,3.77
2023-02-11T07:57:56.029Z,3.78
2023-02-11T07:59:50.923Z,3.77
2023-02-11T08:01:51.425Z,3.79
2023-02-11T08:03:46.645Z,3.81
2023-02-11T08:05:42.257Z,3.86
2023-02-11T08:07:37.558Z,3.85
2023-02-11T08:09:34.497Z,3.86
2023-02-11T08:11:31.224Z,3.87
2023-02-11T08:13:26.992Z,3.86
2023-02-11T08:15:21.950Z,3.88
2023-02-11T08:17:19.846Z,3.92
2023-02-11T08:19:16.630Z,3.94
2023-02-11T08:21:15.762Z,4.00
2023-02-11T08:23:11.028Z,4.01
2023-02-11T08:25:06.075Z,4.00
2023-02-11T08:27:01.305Z,4.06
2023-02-11T08:28:58.760Z,4.16
2023-02-11T08:30:54.056Z,4.21
2023-02-11T08:32:51.719Z,4.21
2023-02-11T08:34:48.659Z,4.23
2023-02-11T08:36:45.274Z,4.25
2023-02-11T08:38:40.969Z,4.26
2023-02-11T08:40:36.110Z,4.26
2023-02-11T08:42:31.078Z,4.28
2023-02-11T08:44:27.156Z,4.28
2023-02-11T08:46:22.893Z,4.27
2023-02-11T08:48:20.808Z,4.27
2023-02-11T08:50:15.801Z,4.29
2023-02-11T08:52:11.543Z,4.30
2023-02-11T08:54:10.155Z,4.27
2023-02-11T08:56:06.189Z,4.31
2023-02-11T08:58:01.135Z,4.32
2023-02-11T08:59:56.453Z,4.31
2023-02-11T09:01:51.842Z,4.30
2023-02-11T09:03:49.948Z,4.34
2023-02-11T09:05:45.707Z,4.37
2023-02-11T09:07:40.944Z,4.44
2023-02-11T09:09:36.442Z,4.43
2023-02-11T09:11:35.992Z,4.37
2023-02-11T09:13:32.890Z,4.45
2023-02-11T09:15:27.882Z,4.48
2023-02-11T09:17:23.175Z,4.46
2023-02-11T09:19:21.516Z,4.42
2023-02-11T09:21:18.924Z,4.41
2023-02-11T09:23:15.549Z,4.41
2023-02-11T09:25:12.513Z,4.43
2023-02-11T09:27:08.640Z,4.46
2023-02-11T09:29:04.382Z,4.48
2023-02-11T09:30:59.837Z,4.49
2023-02-11T09:32:55.208Z,4.48
2023-02-11T09:34:53.453Z,4.52
2023-02-11T09:36:48.433Z,4.51
2023-02-11T09:38:44.032Z,4.50
2023-02-11T09:40:42.535Z,4.57
2023-02-11T09:42:46.584Z,4.54
2023-02-11T09:44:47.010Z,4.58
2023-02-11T09:46:45.745Z,4.60
2023-02-11T09:48:44.582Z,4.59
2023-02-11T09:50:46.234Z,4.59
2023-02-11T09:52:47.300Z,4.65
2023-02-11T09:54:55.508Z,4.69
2023-02-11T09:56:50.481Z,4.71
2023-02-11T09:58:47.522Z,4.76
2023-02-11T10:00:48.120Z,4.77
2023-02-11T10:03:09.207Z,4.81
2023-02-11T10:05:22.141Z,4.83
2023-02-11T10:07:27.956Z,4.83
2023-02-11T10:09:39.774Z,4.85
2023-02-11T10:11:44.549Z,4.86
2023-02-11T10:13:50.366Z,4.86
2023-02-11T10:15:53.490Z,4.88
2023-02-11T10:18:10.034Z,4.90
2023-02-11T10:20:23.651Z,4.92
2023-02-11T10:22:25.905Z,4.92
2023-02-11T10:24:22.159Z,4.96
2023-02-11T10:26:20.190Z,4.94
2023-02-11T10:28:18.753Z,4.94
2023-02-11T10:30:25.158Z,4.97
2023-02-11T10:32:32.222Z,4.89
2023-02-11T10:34:27.794Z,4.91
2023-02-11T10:36:32.600Z,4.87
2023-02-11T10:38:30.816Z,4.89
2023-02-11T10:40:28.134Z,4.92
2023-02-11T10:42:23.829Z,4.89
2023-02-11T10:44:30.270Z,4.90
2023-02-11T10:46:29.503Z,4.91
2023-02-11T10:48:43.867Z,4.93
2023-02-11T10:50:39.709Z,4.87
2023-02-11T10:52:34.863Z,4.90
2023-02-11T10:54:32.758Z,4.94
2023-02-11T10:56:30.836Z,4.94
2023-02-11T10:58:29.253Z,4.93
2023-02-11T11:00:41.572Z,4.95
2023-02-11T11:02:44.107Z,4.95
2023-02-11T11:04:45.749Z,4.96
2023-02-11T11:06:40.784Z,4.99
2023-02-11T11:08:44.564Z,4.96
2023-02-11T11:10:46.965Z,4.96
2023-02-11T11:12:51.170Z,4.98
2023-02-11T11:14:57.200Z,4.94
2023-02-11T11:16:56.280Z,4.89
2023-02-11T11:18:53.417Z,4.90
2023-02-11T11:21:00.092Z,4.92
2023-02-11T11:23:10.749Z,4.94
2023-02-11T11:25:06.181Z,4.96
2023-02-11T11:27:05.461Z,4.95
2023-02-11T11:29:05.194Z,4.95
2023-02-11T11:31:02.182Z,4.95
2023-02-11T11:32:57.920Z,4.96
2023-02-11T11:34:55.679Z,4.96
2023-02-11T11:36:52.334Z,4.97
2023-02-11T11:38:55.136Z,4.96
2023-02-11T11:41:20.911Z,4.97
2023-02-11T11:43:23.862Z,5.02
2023-02-11T11:45:28.716Z,5.08
2023-02-11T11:47:30.979Z,5.06
2023-02-11T11:49:32.629Z,5.03
2023-02-11T11:51:29.034Z,5.04
2023-02-11T11:53:34.369Z,5.06
2023-02-11T11:55:35.947Z,5.05
2023-02-11T11:57:32.210Z,5.09
2023-02-11T11:59:31.284Z,5.09
2023-02-11T12:01:38.855Z,5.10
2023-02-11T12:04:17.349Z,5.14
2023-02-11T12:06:29.369Z,5.15
2023-02-11T12:08:30.623Z,5.15
2023-02-11T12:10:59.821Z,5.17
2023-02-11T12:13:08.564Z,5.15
2023-02-11T12:15:20.664Z,5.19
2023-02-11T12:17:32.589Z,5.20
2023-02-11T12:19:56.376Z,5.21
2023-02-11T12:21:59.175Z,5.23
2023-02-11T12:24:09.178Z,5.22
2023-02-11T12:26:14.153Z,5.27
2023-02-11T12:28:22.158Z,5.27
2023-02-11T12:30:35.423Z,5.30
2023-02-11T12:32:39.309Z,5.35
2023-02-11T12:34:58.457Z,5.34
2023-02-11T12:37:03.173Z,5.38
2023-02-11T12:39:10.325Z,5.38
2023-02-11T12:41:41.945Z,5.41
2023-02-11T12:43:37.303Z,5.45
2023-02-11T12:45:47.528Z,5.48
2023-02-11T12:47:53.831Z,5.48
2023-02-11T12:50:04.729Z,5.50
2023-02-11T12:52:26.293Z,5.52
2023-02-11T12:54:28.356Z,5.54
2023-02-11T12:56:31.130Z,5.57
2023-02-11T12:58:44.546Z,5.55
2023-02-11T13:00:52.148Z,5.55
2023-02-11T13:02:54.517Z,5.59
2023-02-11T13:04:57.341Z,5.59
2023-02-11T13:07:02.355Z,5.61
2023-02-11T13:09:07.219Z,5.64
2023-02-11T13:11:07.952Z,5.63
2023-02-11T13:13:21.564Z,5.64
2023-02-11T13:15:19.378Z,5.71
2023-02-11T13:17:24.421Z,5.67
2023-02-11T13:19:31.812Z,5.69
2023-02-11T13:21:37.329Z,5.69
2023-02-11T13:23:40.493Z,5.66
2023-02-11T13:25:43.603Z,5.65
2023-02-11T13:27:50.595Z,5.63
2023-02-11T13:30:23.242Z,5.64
2023-02-11T13:32:23.817Z,5.62
2023-02-11T13:34:40.957Z,5.67
2023-02-11T13:36:38.267Z,5.68
2023-02-11T13:38:37.357Z,5.67
2023-02-11T13:40:35.159Z,5.68
2023-02-11T13:42:31.291Z,5.70
2023-02-11T13:44:30.978Z,5.66
2023-02-11T13:46:30.680Z,5.65
2023-02-11T13:48:30.916Z,5.64
2023-02-11T13:50:28.246Z,5.67
2023-02-11T13:52:28.630Z,5.67
2023-02-11T13:54:35.609Z,5.69
2023-02-11T13:56:34.113Z,5.68
2023-02-11T13:58:40.017Z,5.67
2023-02-11T14:00:52.100Z,5.67
2023-02-11T14:03:00.015Z,5.67
2023-02-11T14:05:39.888Z,5.67
2023-02-11T14:07:50.729Z,5.67
2023-02-11T14:09:45.732Z,5.70
2023-02-11T14:11:50.998Z,5.68
2023-02-11T14:14:17.840Z,5.67
2023-02-11T14:16:35.336Z,5.68
2023-02-11T14:19:03.537Z,5.68
2023-02-11T14:21:14.862Z,5.70
2023-02-11T14:23:27.300Z,5.62
2023-02-11T14:25:26.718Z,5.65
2023-02-11T14:27:31.210Z,5.62
2023-02-11T14:29:35.391Z,5.60
2023-02-11T14:31:38.993Z,5.57
2023-02-11T14:34:07.444Z,5.58
2023-02-11T14:36:16.516Z,5.61
2023-02-11T14:38:22.977Z,5.60
2023-02-11T14:40:27.324Z,5.63
2023-02-11T14:42:26.953Z,5.60
2023-02-11T14:44:24.964Z,5.59
2023-02-11T14:46:22.585Z,5.58
2023-02-11T14:48:19.754Z,5.59
2023-02-11T14:50:28.793Z,5.62
2023-02-11T14:52:31.483Z,5.59
2023-02-11T14:54:30.325Z,5.61
2023-02-11T14:56:27.999Z,5.61
2023-02-11T14:58:25.698Z,5.61
2023-02-11T15:00:24.801Z,5.61
2023-02-11T15:02:27.521Z,5.64
2023-02-11T15:04:28.005Z,5.67
2023-02-11T15:06:33.283Z,5.66
2023-02-11T15:08:33.191Z,5.65
2023-02-11T15:10:35.819Z,5.65
2023-02-11T15:12:31.715Z,5.63
2023-02-11T15:14:29.853Z,5.65
2023-02-11T15:16:28.204Z,5.66
2023-02-11T15:18:28.303Z,5.66
2023-02-11T15:20:28.668Z,5.71
2023-02-11T15:22:26.441Z,5.70
2023-02-11T15:24:29.612Z,5.70
2023-02-11T15:26:24.957Z,5.66
2023-02-11T15:28:26.659Z,5.70
2023-02-11T15:30:29.191Z,5.85
2023-02-11T15:32:26.473Z,5.83
2023-02-11T15:34:21.599Z,5.79
2023-02-11T15:36:17.873Z,5.73
2023-02-11T15:38:15.582Z,5.77
2023-02-11T15:40:18.944Z,5.73
2023-02-11T15:42:28.277Z,5.76
2023-02-11T15:44:34.567Z,5.74
2023-02-11T15:46:39.470Z,5.71
2023-02-11T15:48:40.518Z,5.84
2023-02-11T15:50:40.494Z,5.79
2023-02-11T15:52:36.743Z,5.79
2023-02-11T15:54:34.321Z,5.78
2023-02-11T15:56:34.413Z,5.80
2023-02-11T15:58:29.621Z,5.81
2023-02-11T16:00:27.689Z,5.76
2023-02-11T16:02:28.469Z,5.76
2023-02-11T16:04:27.208Z,5.78
2023-02-11T16:06:24.659Z,5.80
2023-02-11T16:08:29.745Z,5.86
2023-02-11T16:10:30.718Z,5.84
2023-02-11T16:12:30.164Z,5.83
2023-02-11T16:14:32.436Z,5.81
2023-02-11T16:16:30.738Z,5.87
2023-02-11T16:18:38.710Z,5.88
2023-02-11T16:20:34.967Z,5.88
2023-02-11T16:22:38.128Z,5.89
2023-02-11T16:24:35.941Z,5.92
2023-02-11T16:26:39.246Z,5.96
2023-02-11T16:28:38.459Z,5.85
2023-02-11T16:30:37.455Z,5.87
2023-02-11T16:32:33.073Z,5.85
2023-02-11T16:34:36.630Z,5.91
2023-02-11T16:36:32.129Z,5.95
2023-02-11T16:38:29.426Z,5.94
2023-02-11T16:40:25.092Z,5.93
2023-02-11T16:42:20.770Z,6.06
2023-02-11T16:44:18.705Z,6.02
2023-02-11T16:48:41.085Z,6.02
2023-02-11T16:50:36.791Z,5.96
2023-02-11T16:52:33.244Z,5.96
2023-02-11T16:54:32.728Z,5.95
2023-02-11T16:56:28.682Z,5.94
2023-02-11T16:58:23.995Z,5.94
2023-02-11T17:00:26.749Z,5.98
2023-02-11T17:02:29.545Z,5.96
2023-02-11T17:04:30.206Z,6.00
2023-02-11T17:06:26.934Z,6.09
2023-02-11T17:08:22.963Z,6.02
2023-02-11T17:10:19.714Z,6.04
2023-02-11T17:12:15.152Z,6.05
2023-02-11T17:14:10.732Z,6.04
2023-02-11T17:16:08.489Z,6.02
2023-02-11T17:18:04.061Z,6.01
2023-02-11T17:19:59.677Z,6.01
2023-02-11T17:21:57.448Z,6.03
2023-02-11T17:23:52.351Z,6.14
2023-02-11T17:25:47.687Z,6.18
2023-02-11T17:27:42.672Z,6.18
2023-02-11T17:29:38.068Z,6.22
2023-02-11T17:31:35.953Z,6.27
2023-02-11T17:33:31.096Z,6.27
2023-02-11T17:35:26.425Z,6.34
2023-02-11T17:37:21.385Z,6.29
2023-02-11T17:39:16.777Z,6.27
2023-02-11T17:41:12.807Z,6.28
2023-02-11T17:43:08.097Z,6.21
2023-02-11T17:45:03.034Z,6.14
2023-02-11T17:47:01.014Z,6.12
2023-02-11T17:48:55.925Z,6.11
2023-02-11T17:50:50.869Z,6.12
2023-02-11T17:52:48.510Z,6.07
2023-02-11T17:54:43.480Z,6.07
2023-02-11T17:56:39.586Z,6.10
2023-02-11T17:58:34.620Z,6.15
2023-02-11T18:00:30.859Z,6.14
2023-02-11T18:02:28.786Z,6.17
2023-02-11T18:04:23.827Z,6.12
2023-02-11T18:06:19.452Z,6.14
2023-02-11T18:08:14.428Z,6.11
2023-02-11T18:10:11.612Z,6.11
2023-02-11T18:12:06.952Z,6.14
2023-02-11T18:14:03.138Z,6.20
2023-02-11T18:15:58.130Z,6.21
2023-02-11T18:17:55.639Z,6.23
2023-02-11T18:19:51.322Z,6.24
2023-02-11T18:21:48.828Z,6.26
2023-02-11T18:23:44.867Z,6.28
2023-02-11T18:25:44.326Z,6.32
2023-02-11T18:27:39.953Z,6.36
2023-02-11T18:29:35.608Z,6.33
2023-02-11T18:31:31.470Z,6.36
2023-02-11T18:33:30.551Z,6.33
2023-02-11T18:35:26.122Z,6.28
2023-02-11T18:37:21.402Z,6.22
2023-02-11T18:39:16.425Z,6.27
2023-02-11T18:41:11.883Z,6.26
2023-02-11T18:43:07.243Z,6.33
2023-02-11T18:45:02.884Z,6.31
2023-02-11T18:46:58.111Z,6.34
2023-02-11T18:48:56.437Z,6.43
2023-02-11T18:50:57.162Z,6.29
2023-02-11T18:52:52.532Z,6.26
2023-02-11T18:54:49.317Z,6.33
2023-02-11T18:56:44.622Z,6.32
2023-02-11T18:58:40.376Z,6.33
2023-02-11T19:00:36.352Z,6.32
2023-02-11T19:02:31.347Z,6.27
2023-02-11T19:04:29.527Z,6.33
2023-02-11T19:06:27.038Z,6.33
2023-02-11T19:08:22.294Z,6.37
2023-02-11T19:10:17.502Z,6.38
2023-02-11T19:12:12.789Z,6.45
2023-02-11T19:14:10.217Z,6.45
2023-02-11T19:16:11.302Z,6.43
2023-02-11T19:18:07.321Z,6.46
2023-02-11T19:20:06.043Z,6.39
2023-02-11T19:22:02.552Z,6.36
2023-02-11T19:23:57.494Z,6.37
2023-02-11T19:25:52.993Z,6.36
2023-02-11T19:27:48.676Z,6.39
2023-02-11T19:29:43.761Z,6.43
2023-02-11T19:31:39.592Z,6.36
2023-02-11T19:33:34.697Z,6.35
2023-02-11T19:35:32.300Z,6.34
2023-02-11T19:37:27.594Z,6.38
2023-02-11T19:39:24.062Z,6.43
2023-02-11T19:41:22.222Z,6.40
2023-02-11T19:43:17.147Z,6.42
2023-02-11T19:45:13.069Z,6.42
2023-02-11T19:47:10.318Z,6.42
2023-02-11T19:49:06.830Z,6.36
2023-02-11T19:51:13.048Z,6.37
2023-02-11T19:53:08.552Z,6.40
2023-02-11T19:55:03.837Z,6.38
2023-02-11T19:57:00.303Z,6.34
2023-02-11T19:58:55.165Z,6.28
2023-02-11T20:00:50.168Z,6.28
2023-02-11T20:02:47.142Z,6.29
2023-02-11T20:04:42.336Z,6.28
2023-02-11T20:06:40.223Z,6.28
2023-02-11T20:08:35.820Z,6.33
2023-02-11T20:10:30.889Z,6.34
2023-02-11T20:12:26.155Z,6.34
2023-02-11T20:14:21.158Z,6.32
2023-02-11T20:16:19.481Z,6.33
2023-02-11T20:18:14.860Z,6.32
2023-02-11T20:20:11.015Z,6.36
2023-02-11T20:22:08.578Z,6.33
2023-02-11T20:24:04.101Z,6.38
2023-02-11T20:25:59.037Z,6.43
2023-02-11T20:27:57.345Z,6.42
2023-02-11T20:29:52.792Z,6.45
2023-02-11T20:31:47.920Z,6.41
2023-02-11T20:33:44.444Z,6.39
2023-02-11T20:35:40.333Z,6.40
2023-02-11T20:37:38.779Z,6.37
2023-02-11T20:39:35.464Z,6.31
2023-02-11T20:41:34.365Z,6.39
2023-02-11T20:43:29.914Z,6.40
2023-02-11T20:45:25.122Z,6.40
2023-02-11T20:47:20.755Z,6.41
2023-02-11T20:49:18.896Z,6.45
2023-02-11T20:51:16.419Z,6.45
2023-02-11T20:53:14.325Z,6.46
2023-02-11T20:55:10.295Z,6.42
2023-02-11T20:57:05.633Z,6.50
2023-02-11T20:59:03.832Z,6.54
2023-02-11T21:00:59.242Z,6.52
2023-02-11T21:02:54.595Z,6.47
2023-02-11T21:04:52.961Z,6.47
2023-02-11T21:06:52.829Z,6.45
2023-02-11T21:08:51.111Z,6.43
2023-02-11T21:10:46.482Z,6.38
2023-02-11T21:12:42.118Z,6.42
2023-02-11T21:14:37.303Z,6.40
2023-02-11T21:16:34.994Z,6.48
2023-02-11T21:18:29.946Z,6.50
2023-02-11T21:20:27.400Z,6.55
2023-02-11T21:22:22.681Z,6.56
2023-02-11T21:24:26.010Z,6.41
2023-02-11T21:26:21.595Z,6.46
2023-02-11T21:28:18.964Z,6.51
2023-02-11T21:33:00.390Z,6.39
2023-02-11T21:35:01.267Z,6.57
2023-02-11T21:36:57.848Z,6.44
2023-02-11T21:38:57.886Z,6.43
2023-02-11T21:40:56.194Z,6.47
2023-02-11T21:42:51.796Z,6.46
2023-02-11T21:44:49.068Z,6.47
2023-02-11T21:46:45.702Z,6.56
2023-02-11T21:48:41.512Z,6.54
2023-02-11T21:50:41.392Z,6.54
2023-02-11T21:52:36.685Z,6.53
2023-02-11T21:54:32.266Z,6.55
2023-02-11T21:56:35.376Z,6.60
2023-02-11T21:58:30.430Z,6.67
2023-02-11T22:00:26.119Z,6.58
2023-02-11T22:02:21.153Z,6.66
2023-02-11T22:04:19.250Z,6.58
2023-02-11T22:06:16.915Z,6.67
2023-02-11T22:08:14.678Z,6.52
2023-02-11T22:10:11.123Z,6.55
2023-02-11T22:12:10.583Z,6.52
2023-02-11T22:14:05.940Z,6.54
2023-02-11T22:16:02.848Z,6.48
2023-02-11T22:17:57.854Z,6.59
2023-02-11T22:19:53.238Z,6.55
2023-02-11T22:21:48.171Z,6.45
2023-02-11T22:23:47.869Z,6.56
2023-02-11T22:25:57.706Z,6.58
2023-02-11T22:27:55.807Z,6.54
2023-02-11T22:29:53.054Z,6.67
2023-02-11T22:31:48.384Z,6.60
2023-02-11T22:33:45.922Z,6.62
2023-02-11T22:35:40.816Z,6.59
2023-02-11T22:37:36.116Z,6.49
2023-02-11T22:39:34.189Z,6.58
2023-02-11T22:41:30.370Z,6.55
2023-02-11T22:43:28.334Z,6.46
2023-02-11T22:45:23.407Z,6.51
2023-02-11T22:47:18.690Z,6.50
2023-02-11T22:49:19.129Z,6.56
2023-02-11T22:51:19.421Z,6.54
2023-02-11T22:53:22.432Z,6.47
2023-02-11T22:55:18.529Z,6.55
2023-02-11T22:57:15.066Z,6.55
2023-02-11T22:59:15.230Z,6.47
2023-02-11T23:01:10.518Z,6.41
2023-02-11T23:03:15.881Z,6.38
2023-02-11T23:05:11.759Z,6.52
2023-02-11T23:07:09.759Z,6.48
2023-02-11T23:09:08.622Z,6.52
2023-02-11T23:11:08.099Z,6.49
2023-02-11T23:13:03.580Z,6.47
2023-02-11T23:15:05.230Z,6.52
2023-02-11T23:17:02.119Z,6.52
2023-02-11T23:18:58.348Z,6.51
2023-02-11T23:20:56.468Z,6.45
2023-02-11T23:22:54.884Z,6.53
2023-02-11T23:24:50.647Z,6.55
2023-02-11T23:26:49.172Z,6.60
2023-02-11T23:28:48.281Z,6.58
2023-02-11T23:30:47.775Z,6.53
2023-02-11T23:32:45.525Z,6.56
2023-02-11T23:34:41.105Z,6.53
2023-02-11T23:36:36.411Z,6.55
2023-02-11T23:38:31.716Z,6.47
2023-02-11T23:40:26.977Z,6.33
2023-02-11T23:42:23.940Z,6.40
2023-02-11T23:44:21.094Z,6.36
2023-02-11T23:46:19.709Z,6.37
2023-02-11T23:48:14.748Z,6.39
2023-02-11T23:50:13.603Z,6.40
2023-02-11T23:52:08.953Z,6.47
2023-02-11T23:54:06.652Z,6.42
2023-02-11T23:55:59.320Z,6.35
2023-02-11T23:57:54.201Z,6.31
2023-02-11T23:59:54.545Z,6.36
